McCall, Louisiana
Current Conditions -  °F | °C
As of 3:15 AM on Thursday 23 Oct 2014 (Local Time) from KL38 Reporting Station
Clear Clear  
Wind Chill: 56°   Ceiling: Unl
Heat Index: 56°   Visibility: 10mi
Dew Point: 52°   Wind: 3mph
Humidity: 85%   Direction: 20°NNE
Pressure: 30.08"   Gusts: NA
Location:  30.1206°N, 91.0306°W
Report Text: KL38 230815Z AUTO 02003KT 10SM CLR 14/11 A3008 RMK AO2 T01350110
Loading
Personal Weather Stations






























Interactive Weather Map New forecast layout! Learn more

10-Day Weather Forecast

Advertisements
Track Severe Weather on mobile